sensor_id;sensor_type;location;lat;lon;timestamp;pressure;altitude;pressure_sealevel;temperature;humidity
51297;BME280;37380;45.186;9.792;2023-04-28T00:01:52;101357.91;;;12.75;100.00
51297;BME280;37380;45.186;9.792;2023-04-28T00:04:25;101324.06;;;12.57;100.00
51297;BME280;37380;45.186;9.792;2023-04-28T00:07:20;101352.09;;;12.83;100.00
51297;BME280;37380;45.186;9.792;2023-04-28T00:09:48;101350.75;;;12.71;100.00
51297;BME280;37380;45.186;9.792;2023-04-28T00:12:15;101308.34;;;12.57;100.00
51297;BME280;37380;45.186;9.792;2023-04-28T00:14:42;101361.75;;;12.84;100.00
51297;BME280;37380;45.186;9.792;2023-04-28T00:17:15;101352.94;;;12.58;100.00
51297;BME280;37380;45.186;9.792;2023-04-28T00:20:10;101326.31;;;12.48;100.00
51297;BME280;37380;45.186;9.792;2023-04-28T00:22:37;101334.91;;;12.43;100.00
51297;BME280;37380;45.186;9.792;2023-04-28T00:25:05;101359.91;;;12.58;100.00
51297;BME280;37380;45.186;9.792;2023-04-28T00:27:38;101331.66;;;12.51;100.00
51297;BME280;37380;45.186;9.792;2023-04-28T00:30:37;101323.44;;;12.40;100.00
51297;BME280;37380;45.186;9.792;2023-04-28T00:33:04;101339.97;;;12.39;100.00
51297;BME280;37380;45.186;9.792;2023-04-28T00:35:38;101368.50;;;12.54;100.00
51297;BME280;37380;45.186;9.792;2023-04-28T00:38:32;101357.19;;;12.55;100.00
51297;BME280;37380;45.186;9.792;2023-04-28T00:40:59;101345.88;;;12.33;100.00
51297;BME280;37380;45.186;9.792;2023-04-28T00:43:26;101284.16;;;12.17;100.00
51297;BME280;37380;45.186;9.792;2023-04-28T00:46:01;101353.06;;;12.39;100.00
51297;BME280;37380;45.186;9.792;2023-04-28T00:48:55;101364.72;;;12.45;100.00
51297;BME280;37380;45.186;9.792;2023-04-28T00:51:23;101352.72;;;12.30;100.00
51297;BME280;37380;45.186;9.792;2023-04-28T00:53:56;101351.00;;;12.30;100.00
51297;BME280;37380;45.186;9.792;2023-04-28T00:56:57;101355.53;;;12.34;100.00
51297;BME280;37380;45.186;9.792;2023-04-28T00:59:52;101333.16;;;12.20;100.00
51297;BME280;37380;45.186;9.792;2023-04-28T01:02:27;101365.19;;;12.35;100.00
51297;BME280;37380;45.186;9.792;2023-04-28T01:05:29;101362.41;;;12.31;100.00
51297;BME280;37380;45.186;9.792;2023-04-28T01:08:02;101375.00;;;12.41;100.00
51297;BME280;37380;45.186;9.792;2023-04-28T01:10:30;101321.91;;;12.22;100.00
51297;BME280;37380;45.186;9.792;2023-04-28T01:13:04;101295.06;;;12.06;100.00
51297;BME280;37380;45.186;9.792;2023-04-28T01:15:37;101333.47;;;12.28;100.00
51297;BME280;37380;45.186;9.792;2023-04-28T01:18:32;101358.19;;;12.36;100.00
51297;BME280;37380;45.186;9.792;2023-04-28T01:20:59;101333.69;;;12.34;100.00
51297;BME280;37380;45.186;9.792;2023-04-28T01:23:26;101371.72;;;12.24;100.00
51297;BME280;37380;45.186;9.792;2023-04-28T01:25:53;101370.19;;;12.29;100.00
51297;BME280;37380;45.186;9.792;2023-04-28T01:28:26;101359.81;;;12.10;100.00
51297;BME280;37380;45.186;9.792;2023-04-28T01:31:21;101307.72;;;11.72;100.00
51297;BME280;37380;45.186;9.792;2023-04-28T01:33:48;101329.56;;;11.95;100.00
51297;BME280;37380;45.186;9.792;2023-04-28T01:36:21;101361.16;;;11.98;100.00
51297;BME280;37380;45.186;9.792;2023-04-28T01:39:17;101352.88;;;11.67;100.00
51297;BME280;37380;45.186;9.792;2023-04-28T01:41:44;101366.56;;;11.82;100.00
51297;BME280;37380;45.186;9.792;2023-04-28T01:44:11;101340.59;;;11.87;100.00
51297;BME280;37380;45.186;9.792;2023-04-28T01:46:39;101364.72;;;12.00;100.00
51297;BME280;37380;45.186;9.792;2023-04-28T01:49:06;101328.59;;;11.71;100.00
51297;BME280;37380;45.186;9.792;2023-04-28T01:51:34;101351.97;;;11.87;100.00
51297;BME280;37380;45.186;9.792;2023-04-28T01:54:07;101350.53;;;11.95;100.00
51297;BME280;37380;45.186;9.792;2023-04-28T01:57:08;101316.31;;;11.91;100.00
51297;BME280;37380;45.186;9.792;2023-04-28T02:00:10;101327.44;;;11.85;100.00
51297;BME280;37380;45.186;9.792;2023-04-28T02:03:10;101301.56;;;11.72;100.00
51297;BME280;37380;45.186;9.792;2023-04-28T02:06:08;101340.31;;;11.81;100.00
51297;BME280;37380;45.186;9.792;2023-04-28T02:08:35;101339.06;;;11.71;100.00
51297;BME280;37380;45.186;9.792;2023-04-28T02:11:02;101360.22;;;11.75;100.00
51297;BME280;37380;45.186;9.792;2023-04-28T02:13:30;101330.13;;;11.66;100.00
51297;BME280;37380;45.186;9.792;2023-04-28T02:15:59;101373.97;;;11.92;100.00
51297;BME280;37380;45.186;9.792;2023-04-28T02:18:27;101347.13;;;11.75;100.00
51297;BME280;37380;45.186;9.792;2023-04-28T02:21:07;101365.88;;;11.86;100.00
51297;BME280;37380;45.186;9.792;2023-04-28T02:23:34;101379.19;;;11.91;100.00
51297;BME280;37380;45.186;9.792;2023-04-28T02:26:04;101293.47;;;11.43;100.00
51297;BME280;37380;45.186;9.792;2023-04-28T02:28:37;101392.44;;;11.95;100.00
51297;BME280;37380;45.186;9.792;2023-04-28T02:31:33;101364.41;;;11.72;100.00
51297;BME280;37380;45.186;9.792;2023-04-28T02:34:00;101361.38;;;11.61;100.00
51297;BME280;37380;45.186;9.792;2023-04-28T02:36:33;101315.56;;;11.29;100.00
51297;BME280;37380;45.186;9.792;2023-04-28T02:39:28;101397.91;;;11.81;100.00
51297;BME280;37380;45.186;9.792;2023-04-28T02:41:56;101396.00;;;11.76;100.00
51297;BME280;37380;45.186;9.792;2023-04-28T02:44:23;101307.31;;;11.41;100.00
51297;BME280;37380;45.186;9.792;2023-04-28T02:46:50;101400.44;;;11.98;100.00
51297;BME280;37380;45.186;9.792;2023-04-28T02:49:17;101378.00;;;11.84;100.00
51297;BME280;37380;45.186;9.792;2023-04-28T02:51:45;101380.81;;;11.89;100.00
51297;BME280;37380;45.186;9.792;2023-04-28T02:54:18;101391.66;;;11.77;100.00
51297;BME280;37380;45.186;9.792;2023-04-28T02:57:16;101409.09;;;11.97;100.00
51297;BME280;37380;45.186;9.792;2023-04-28T02:59:43;101406.00;;;11.85;100.00
51297;BME280;37380;45.186;9.792;2023-04-28T03:02:16;101367.41;;;11.81;99.73
51297;BME280;37380;45.186;9.792;2023-04-28T03:05:17;101409.63;;;11.89;100.00
51297;BME280;37380;45.186;9.792;2023-04-28T03:08:12;101390.03;;;11.58;100.00
51297;BME280;37380;45.186;9.792;2023-04-28T03:10:45;101409.38;;;11.62;100.00
51297;BME280;37380;45.186;9.792;2023-04-28T03:13:40;101406.16;;;11.69;100.00
51297;BME280;37380;45.186;9.792;2023-04-28T03:16:13;101357.25;;;11.68;100.00
51297;BME280;37380;45.186;9.792;2023-04-28T03:19:08;101367.13;;;11.75;100.00
51297;BME280;37380;45.186;9.792;2023-04-28T03:21:35;101328.50;;;11.47;100.00
51297;BME280;37380;45.186;9.792;2023-04-28T03:24:02;101362.00;;;11.55;100.00
51297;BME280;37380;45.186;9.792;2023-04-28T03:26:38;101361.31;;;11.39;100.00
51297;BME280;37380;45.186;9.792;2023-04-28T03:29:12;101343.88;;;11.39;100.00
51297;BME280;37380;45.186;9.792;2023-04-28T03:32:07;101326.97;;;11.31;100.00
51297;BME280;37380;45.186;9.792;2023-04-28T03:34:40;101340.94;;;11.52;100.00
51297;BME280;37380;45.186;9.792;2023-04-28T03:37:35;101370.72;;;11.77;100.00
51297;BME280;37380;45.186;9.792;2023-04-28T03:40:02;101347.03;;;11.74;100.00
51297;BME280;37380;45.186;9.792;2023-04-28T03:42:41;101309.41;;;11.49;100.00
51297;BME280;37380;45.186;9.792;2023-04-28T03:45:11;101287.28;;;10.99;100.00
51297;BME280;37380;45.186;9.792;2023-04-28T03:47:38;101339.53;;;11.40;100.00
51297;BME280;37380;45.186;9.792;2023-04-28T03:50:11;101359.75;;;11.65;100.00
51297;BME280;37380;45.186;9.792;2023-04-28T03:53:12;101316.63;;;11.13;100.00
51297;BME280;37380;45.186;9.792;2023-04-28T03:56:07;101375.47;;;11.65;100.00
51297;BME280;37380;45.186;9.792;2023-04-28T03:58:34;101389.88;;;11.76;100.00
51297;BME280;37380;45.186;9.792;2023-04-28T04:01:01;101352.34;;;11.54;100.00
51297;BME280;37380;45.186;9.792;2023-04-28T04:03:28;101387.72;;;11.45;100.00
51297;BME280;37380;45.186;9.792;2023-04-28T04:05:56;101396.16;;;11.59;100.00
51297;BME280;37380;45.186;9.792;2023-04-28T04:08:23;101370.25;;;11.44;100.00
51297;BME280;37380;45.186;9.792;2023-04-28T04:10:56;101381.84;;;11.50;100.00
51297;BME280;37380;45.186;9.792;2023-04-28T04:13:57;101378.91;;;11.43;100.00
51297;BME280;37380;45.186;9.792;2023-04-28T04:16:52;101331.31;;;11.09;100.00
51297;BME280;37380;45.186;9.792;2023-04-28T04:19:21;101409.53;;;11.66;100.00
51297;BME280;37380;45.186;9.792;2023-04-28T04:21:52;101391.19;;;11.44;100.00
51297;BME280;37380;45.186;9.792;2023-04-28T04:24:19;101406.66;;;11.60;100.00
51297;BME280;37380;45.186;9.792;2023-04-28T04:26:47;101432.66;;;11.55;100.00
51297;BME280;37380;45.186;9.792;2023-04-28T04:29:36;101379.16;;;11.28;100.00
51297;BME280;37380;45.186;9.792;2023-04-28T04:32:32;101370.25;;;11.23;100.00
51297;BME280;37380;45.186;9.792;2023-04-28T04:35:06;101377.50;;;10.90;100.00
51297;BME280;37380;45.186;9.792;2023-04-28T04:38:00;101401.63;;;11.23;100.00
51297;BME280;37380;45.186;9.792;2023-04-28T04:40:27;101346.72;;;11.03;100.00
51297;BME280;37380;45.186;9.792;2023-04-28T04:43:01;101419.25;;;11.69;100.00
51297;BME280;37380;45.186;9.792;2023-04-28T04:45:58;101410.47;;;11.88;100.00
51297;BME280;37380;45.186;9.792;2023-04-28T04:48:28;101416.47;;;11.85;100.00
51297;BME280;37380;45.186;9.792;2023-04-28T04:50:57;101364.78;;;11.81;100.00
51297;BME280;37380;45.186;9.792;2023-04-28T04:53:30;101417.16;;;12.24;100.00
51297;BME280;37380;45.186;9.792;2023-04-28T04:56:25;101351.03;;;12.08;100.00
51297;BME280;37380;45.186;9.792;2023-04-28T04:58:52;101395.19;;;11.98;100.00
51297;BME280;37380;45.186;9.792;2023-04-28T05:01:52;101353.88;;;12.14;100.00
51297;BME280;37380;45.186;9.792;2023-04-28T05:04:20;101402.09;;;12.64;100.00
51297;BME280;37380;45.186;9.792;2023-04-28T05:06:48;101378.94;;;12.76;100.00
51297;BME280;37380;45.186;9.792;2023-04-28T05:09:23;101392.34;;;12.84;100.00
51297;BME280;37380;45.186;9.792;2023-04-28T05:12:25;101418.41;;;13.03;100.00
51297;BME280;37380;45.186;9.792;2023-04-28T05:14:55;101303.03;;;12.31;100.00
51297;BME280;37380;45.186;9.792;2023-04-28T05:17:30;101420.22;;;13.06;100.00
51297;BME280;37380;45.186;9.792;2023-04-28T05:20:31;101432.53;;;12.60;100.00
51297;BME280;37380;45.186;9.792;2023-04-28T05:23:27;101410.91;;;12.66;100.00
51297;BME280;37380;45.186;9.792;2023-04-28T05:25:54;101421.59;;;13.20;100.00
51297;BME280;37380;45.186;9.792;2023-04-28T05:28:57;101238.88;;;11.97;100.00
51297;BME280;37380;45.186;9.792;2023-04-28T05:32:21;101413.03;;;12.76;100.00
51297;BME280;37380;45.186;9.792;2023-04-28T05:35:16;101293.09;;;12.46;100.00
51297;BME280;37380;45.186;9.792;2023-04-28T05:37:57;101220.00;;;12.30;100.00
51297;BME280;37380;45.186;9.792;2023-04-28T05:40:27;101303.28;;;13.12;100.00
51297;BME280;37380;45.186;9.792;2023-04-28T05:42:55;101337.84;;;13.01;100.00
51297;BME280;37380;45.186;9.792;2023-04-28T05:45:22;101263.03;;;12.86;100.00
51297;BME280;37380;45.186;9.792;2023-04-28T05:47:49;101249.91;;;12.61;100.00
51297;BME280;37380;45.186;9.792;2023-04-28T05:50:24;101358.47;;;13.16;100.00
51297;BME280;37380;45.186;9.792;2023-04-28T05:53:25;101431.00;;;12.89;100.00
51297;BME280;37380;45.186;9.792;2023-04-28T05:56:19;101432.63;;;12.39;100.00
51297;BME280;37380;45.186;9.792;2023-04-28T05:58:46;101432.34;;;12.78;100.00
51297;BME280;37380;45.186;9.792;2023-04-28T06:01:16;101435.91;;;13.04;100.00
51297;BME280;37380;45.186;9.792;2023-04-28T06:03:43;101439.22;;;13.47;100.00
51297;BME280;37380;45.186;9.792;2023-04-28T06:06:12;101418.03;;;13.68;100.00
51297;BME280;37380;45.186;9.792;2023-04-28T06:08:39;101440.75;;;14.77;100.00
51297;BME280;37380;45.186;9.792;2023-04-28T06:11:13;101414.59;;;14.82;100.00
51297;BME280;37380;45.186;9.792;2023-04-28T06:14:08;101435.56;;;15.42;100.00
51297;BME280;37380;45.186;9.792;2023-04-28T06:16:35;101431.59;;;15.26;100.00
51297;BME280;37380;45.186;9.792;2023-04-28T06:19:02;101421.59;;;15.79;100.00
51297;BME280;37380;45.186;9.792;2023-04-28T06:21:36;101457.75;;;15.19;100.00
51297;BME280;37380;45.186;9.792;2023-04-28T06:24:37;101407.63;;;14.54;100.00
51297;BME280;37380;45.186;9.792;2023-04-28T06:27:47;101418.28;;;14.58;100.00
51297;BME280;37380;45.186;9.792;2023-04-28T06:30:41;101460.63;;;15.28;100.00
51297;BME280;37380;45.186;9.792;2023-04-28T06:33:08;101381.03;;;15.05;100.00
51297;BME280;37380;45.186;9.792;2023-04-28T06:35:42;101448.25;;;15.25;100.00
51297;BME280;37380;45.186;9.792;2023-04-28T06:38:36;101489.59;;;15.28;100.00
51297;BME280;37380;45.186;9.792;2023-04-28T06:41:05;101490.91;;;16.10;100.00
51297;BME280;37380;45.186;9.792;2023-04-28T06:43:37;101465.63;;;17.41;94.66
51297;BME280;37380;45.186;9.792;2023-04-28T06:46:13;101293.41;;;16.21;97.41
51297;BME280;37380;45.186;9.792;2023-04-28T06:48:41;101455.75;;;17.79;89.79
51297;BME280;37380;45.186;9.792;2023-04-28T06:51:09;101419.06;;;16.60;94.21
51297;BME280;37380;45.186;9.792;2023-04-28T06:53:37;101449.53;;;16.07;100.00
51297;BME280;37380;45.186;9.792;2023-04-28T06:56:13;101471.78;;;17.40;95.77
51297;BME280;37380;45.186;9.792;2023-04-28T06:59:14;101455.31;;;17.55;92.84
51297;BME280;37380;45.186;9.792;2023-04-28T07:02:26;101421.59;;;17.92;90.30
51297;BME280;37380;45.186;9.792;2023-04-28T07:04:53;101455.53;;;16.78;97.00
51297;BME280;37380;45.186;9.792;2023-04-28T07:07:21;101366.25;;;16.17;99.20
51297;BME280;37380;45.186;9.792;2023-04-28T07:09:48;101452.00;;;16.00;100.00
51297;BME280;37380;45.186;9.792;2023-04-28T07:12:15;101356.00;;;15.90;99.37
51297;BME280;37380;45.186;9.792;2023-04-28T07:14:49;101313.03;;;15.22;100.00
51297;BME280;37380;45.186;9.792;2023-04-28T07:17:50;101486.31;;;16.77;99.20
51297;BME280;37380;45.186;9.792;2023-04-28T07:20:51;101462.72;;;17.27;96.25
51297;BME280;37380;45.186;9.792;2023-04-28T07:23:52;101271.47;;;15.81;99.11
51297;BME280;37380;45.186;9.792;2023-04-28T07:26:26;101289.78;;;16.16;98.10
51297;BME280;37380;45.186;9.792;2023-04-28T07:29:00;101280.78;;;16.48;93.22
51297;BME280;37380;45.186;9.792;2023-04-28T07:32:05;101339.75;;;16.93;94.64
51297;BME280;37380;45.186;9.792;2023-04-28T07:35:02;101313.91;;;17.25;91.34
51297;BME280;37380;45.186;9.792;2023-04-28T07:37:30;101289.56;;;17.43;90.86
51297;BME280;37380;45.186;9.792;2023-04-28T07:39:59;101266.75;;;18.10;84.92
51297;BME280;37380;45.186;9.792;2023-04-28T07:42:36;101273.75;;;16.94;91.01
51297;BME280;37380;45.186;9.792;2023-04-28T07:45:30;101282.19;;;17.78;85.62
51297;BME280;37380;45.186;9.792;2023-04-28T07:47:58;101261.47;;;18.12;80.10
51297;BME280;37380;45.186;9.792;2023-04-28T07:50:33;101266.09;;;17.10;89.32
51297;BME280;37380;45.186;9.792;2023-04-28T07:53:27;101320.34;;;17.97;83.79
51297;BME280;37380;45.186;9.792;2023-04-28T07:55:56;101274.84;;;17.60;81.05
51297;BME280;37380;45.186;9.792;2023-04-28T07:58:33;101305.69;;;17.08;94.29
51297;BME280;37380;45.186;9.792;2023-04-28T08:01:29;101282.56;;;18.06;91.17
51297;BME280;37380;45.186;9.792;2023-04-28T08:03:57;101377.22;;;18.97;89.02
51297;BME280;37380;45.186;9.792;2023-04-28T08:06:29;101442.69;;;19.99;77.85
51297;BME280;37380;45.186;9.792;2023-04-28T08:09:03;101264.53;;;18.46;62.90
51297;BME280;37380;45.186;9.792;2023-04-28T08:11:57;101253.81;;;17.12;70.11
51297;BME280;37380;45.186;9.792;2023-04-28T08:14:34;101354.31;;;17.74;67.63
51297;BME280;37380;45.186;9.792;2023-04-28T08:17:02;101413.44;;;18.34;72.01
51297;BME280;37380;45.186;9.792;2023-04-28T08:19:39;101335.72;;;17.13;80.59
51297;BME280;37380;45.186;9.792;2023-04-28T08:22:28;101278.78;;;17.87;75.14
51297;BME280;37380;45.186;9.792;2023-04-28T08:24:56;101367.91;;;17.97;71.04
51297;BME280;37380;45.186;9.792;2023-04-28T08:27:34;101244.06;;;18.28;60.38
51297;BME280;37380;45.186;9.792;2023-04-28T08:30:34;101245.94;;;19.30;60.64
51297;BME280;37380;45.186;9.792;2023-04-28T08:33:10;101285.09;;;18.71;62.66
51297;BME280;37380;45.186;9.792;2023-04-28T08:35:41;101436.13;;;20.82;60.71
51297;BME280;37380;45.186;9.792;2023-04-28T08:38:10;101278.22;;;18.86;66.28
51297;BME280;37380;45.186;9.792;2023-04-28T08:40:55;101264.13;;;18.90;63.14
51297;BME280;37380;45.186;9.792;2023-04-28T08:44:01;101288.19;;;19.13;67.29
51297;BME280;37380;45.186;9.792;2023-04-28T08:47:11;101310.16;;;19.01;68.89
51297;BME280;37380;45.186;9.792;2023-04-28T08:50:07;101441.59;;;21.27;59.54
51297;BME280;37380;45.186;9.792;2023-04-28T08:52:35;101400.00;;;21.48;57.12
51297;BME280;37380;45.186;9.792;2023-04-28T08:57:38;101420.41;;;21.94;64.23
51297;BME280;37380;45.186;9.792;2023-04-28T09:00:10;101436.94;;;20.66;68.10
51297;BME280;37380;45.186;9.792;2023-04-28T09:02:44;101448.63;;;21.17;60.00
51297;BME280;37380;45.186;9.792;2023-04-28T09:05:38;101431.03;;;22.02;57.08
51297;BME280;37380;45.186;9.792;2023-04-28T09:08:05;101425.59;;;21.20;60.77
51297;BME280;37380;45.186;9.792;2023-04-28T09:10:32;101418.63;;;21.58;60.33
51297;BME280;37380;45.186;9.792;2023-04-28T09:12:59;101439.00;;;22.25;58.05
51297;BME280;37380;45.186;9.792;2023-04-28T09:15:37;101407.97;;;22.24;56.05
51297;BME280;37380;45.186;9.792;2023-04-28T09:18:13;101432.59;;;22.90;59.77
51297;BME280;37380;45.186;9.792;2023-04-28T09:20:41;101403.09;;;23.28;53.32
51297;BME280;37380;45.186;9.792;2023-04-28T09:23:13;101441.25;;;23.40;55.28
51297;BME280;37380;45.186;9.792;2023-04-28T09:28:32;101429.28;;;21.91;54.26
51297;BME280;37380;45.186;9.792;2023-04-28T09:31:36;101432.78;;;21.37;59.81
51297;BME280;37380;45.186;9.792;2023-04-28T09:34:45;101412.31;;;21.10;58.29
51297;BME280;37380;45.186;9.792;2023-04-28T09:37:39;101418.63;;;21.61;58.57
51297;BME280;37380;45.186;9.792;2023-04-28T09:40:08;101415.00;;;22.48;51.71
51297;BME280;37380;45.186;9.792;2023-04-28T09:42:42;101426.88;;;20.16;60.32
51297;BME280;37380;45.186;9.792;2023-04-28T09:45:17;101411.78;;;20.05;58.98
51297;BME280;37380;45.186;9.792;2023-04-28T09:48:28;101349.34;;;20.81;56.83
51297;BME280;37380;45.186;9.792;2023-04-28T09:51:24;101367.13;;;21.07;55.47
51297;BME280;37380;45.186;9.792;2023-04-28T09:53:51;101362.78;;;21.82;54.65
51297;BME280;37380;45.186;9.792;2023-04-28T09:56:29;101371.28;;;20.37;57.15
51297;BME280;37380;45.186;9.792;2023-04-28T09:59:31;101394.56;;;21.06;51.21
51297;BME280;37380;45.186;9.792;2023-04-28T10:02:34;101322.00;;;21.66;46.25
51297;BME280;37380;45.186;9.792;2023-04-28T10:05:35;101362.63;;;22.45;47.35
51297;BME280;37380;45.186;9.792;2023-04-28T10:08:36;101365.41;;;22.05;43.08
51297;BME280;37380;45.186;9.792;2023-04-28T10:11:32;101371.22;;;23.13;42.84
51297;BME280;37380;45.186;9.792;2023-04-28T10:13:59;101362.09;;;23.45;41.65
51297;BME280;37380;45.186;9.792;2023-04-28T10:16:29;101366.78;;;24.15;39.51
51297;BME280;37380;45.186;9.792;2023-04-28T10:18:57;101374.38;;;23.64;40.88
51297;BME280;37380;45.186;9.792;2023-04-28T10:21:26;101384.44;;;24.29;42.57
51297;BME280;37380;45.186;9.792;2023-04-28T10:24:08;101373.47;;;23.67;38.66
51297;BME280;37380;45.186;9.792;2023-04-28T10:27:09;101372.59;;;24.56;38.71
51297;BME280;37380;45.186;9.792;2023-04-28T10:30:16;101325.72;;;24.27;36.98
51297;BME280;37380;45.186;9.792;2023-04-28T10:35:45;101340.72;;;24.37;36.19
51297;BME280;37380;45.186;9.792;2023-04-28T10:38:17;101359.88;;;23.96;38.39
51297;BME280;37380;45.186;9.792;2023-04-28T10:40:52;101364.97;;;23.16;41.08
51297;BME280;37380;45.186;9.792;2023-04-28T10:51:35;101341.50;;;21.58;45.81
51297;BME280;37380;45.186;9.792;2023-04-28T10:54:36;101329.91;;;21.99;42.94
51297;BME280;37380;45.186;9.792;2023-04-28T10:57:21;101347.63;;;22.17;43.46
51297;BME280;37380;45.186;9.792;2023-04-28T10:59:49;101332.63;;;21.23;44.85
51297;BME280;37380;45.186;9.792;2023-04-28T11:02:35;101349.41;;;22.14;42.62
51297;BME280;37380;45.186;9.792;2023-04-28T11:05:10;101314.91;;;21.64;43.19
51297;BME280;37380;45.186;9.792;2023-04-28T11:07:38;101322.72;;;22.36;43.63
51297;BME280;37380;45.186;9.792;2023-04-28T11:10:09;101310.41;;;22.01;44.81
51297;BME280;37380;45.186;9.792;2023-04-28T11:16:01;101290.09;;;21.40;46.11
51297;BME280;37380;45.186;9.792;2023-04-28T11:18:58;101285.50;;;22.31;43.17
51297;BME280;37380;45.186;9.792;2023-04-28T11:21:55;101284.78;;;21.50;43.97
51297;BME280;37380;45.186;9.792;2023-04-28T11:24:23;101294.50;;;21.72;43.88
51297;BME280;37380;45.186;9.792;2023-04-28T11:26:55;101259.97;;;21.60;42.95
51297;BME280;37380;45.186;9.792;2023-04-28T11:29:39;101275.06;;;21.36;44.70
51297;BME280;37380;45.186;9.792;2023-04-28T11:32:35;101267.72;;;22.33;43.25
51297;BME280;37380;45.186;9.792;2023-04-28T11:35:03;101266.13;;;21.82;43.64
51297;BME280;37380;45.186;9.792;2023-04-28T11:37:35;101266.03;;;22.06;44.39
51297;BME280;37380;45.186;9.792;2023-04-28T11:40:12;101267.44;;;22.84;42.61
51297;BME280;37380;45.186;9.792;2023-04-28T11:42:47;101264.22;;;22.16;41.43
51297;BME280;37380;45.186;9.792;2023-04-28T11:45:15;101260.47;;;22.63;42.24
51297;BME280;37380;45.186;9.792;2023-04-28T11:47:42;101243.84;;;22.18;42.23
51297;BME280;37380;45.186;9.792;2023-04-28T11:50:10;101265.03;;;22.46;40.68
51297;BME280;37380;45.186;9.792;2023-04-28T11:52:50;101233.81;;;22.66;42.00
51297;BME280;37380;45.186;9.792;2023-04-28T11:55:19;101247.00;;;22.85;42.25
51297;BME280;37380;45.186;9.792;2023-04-28T11:57:46;101236.47;;;23.69;42.74
51297;BME280;37380;45.186;9.792;2023-04-28T12:00:22;101161.59;;;23.03;45.98
51297;BME280;37380;45.186;9.792;2023-04-28T12:03:24;101214.22;;;22.73;42.25
51297;BME280;37380;45.186;9.792;2023-04-28T12:06:18;101236.78;;;23.42;41.22
51297;BME280;37380;45.186;9.792;2023-04-28T12:08:46;101219.69;;;23.58;40.43
51297;BME280;37380;45.186;9.792;2023-04-28T12:11:21;101202.22;;;23.31;40.06
51297;BME280;37380;45.186;9.792;2023-04-28T12:14:23;101202.72;;;23.68;40.12
51297;BME280;37380;45.186;9.792;2023-04-28T12:17:29;101226.78;;;23.62;40.09
51297;BME280;37380;45.186;9.792;2023-04-28T12:19:59;101209.16;;;22.35;42.01
51297;BME280;37380;45.186;9.792;2023-04-28T12:22:27;101242.72;;;22.59;42.40
51297;BME280;37380;45.186;9.792;2023-04-28T12:27:39;101215.28;;;22.48;41.85
51297;BME280;37380;45.186;9.792;2023-04-28T12:30:36;101222.47;;;22.35;44.26
51297;BME280;37380;45.186;9.792;2023-04-28T12:33:23;101231.88;;;22.88;43.37
51297;BME280;37380;45.186;9.792;2023-04-28T12:35:55;101221.66;;;23.41;43.74
51297;BME280;37380;45.186;9.792;2023-04-28T12:38:23;101225.00;;;23.61;42.56
51297;BME280;37380;45.186;9.792;2023-04-28T12:40:50;101225.63;;;23.89;42.64
51297;BME280;37380;45.186;9.792;2023-04-28T12:43:24;101203.25;;;23.98;41.32
51297;BME280;37380;45.186;9.792;2023-04-28T12:46:18;101220.78;;;23.42;39.91
51297;BME280;37380;45.186;9.792;2023-04-28T12:48:52;101216.91;;;23.72;39.83
51297;BME280;37380;45.186;9.792;2023-04-28T12:51:53;101193.41;;;23.24;42.12
51297;BME280;37380;45.186;9.792;2023-04-28T12:54:53;101204.84;;;23.33;41.43
51297;BME280;37380;45.186;9.792;2023-04-28T12:57:28;101214.13;;;23.83;41.17
51297;BME280;37380;45.186;9.792;2023-04-28T13:00:22;101207.00;;;23.82;41.29
51297;BME280;37380;45.186;9.792;2023-04-28T13:02:57;101162.88;;;23.50;42.10
51297;BME280;37380;45.186;9.792;2023-04-28T13:05:58;101191.72;;;23.14;40.89
51297;BME280;37380;45.186;9.792;2023-04-28T13:08:59;101184.34;;;23.39;40.58
51297;BME280;37380;45.186;9.792;2023-04-28T13:12:00;101170.69;;;22.74;42.88
51297;BME280;37380;45.186;9.792;2023-04-28T13:14:37;101177.13;;;22.43;42.92
51297;BME280;37380;45.186;9.792;2023-04-28T13:17:04;101199.78;;;23.10;42.25
51297;BME280;37380;45.186;9.792;2023-04-28T13:19:31;101183.16;;;23.68;42.48
51297;BME280;37380;45.186;9.792;2023-04-28T13:21:59;101193.63;;;22.94;41.20
51297;BME280;37380;45.186;9.792;2023-04-28T13:24:31;101185.09;;;22.52;42.22
51297;BME280;37380;45.186;9.792;2023-04-28T13:27:03;101146.81;;;22.64;43.65
51297;BME280;37380;45.186;9.792;2023-04-28T13:29:37;101154.28;;;22.08;44.59
51297;BME280;37380;45.186;9.792;2023-04-28T13:32:31;101171.56;;;22.76;43.54
51297;BME280;37380;45.186;9.792;2023-04-28T13:34:59;101102.66;;;22.35;44.04
51297;BME280;37380;45.186;9.792;2023-04-28T13:37:26;101116.19;;;23.12;42.89
51297;BME280;37380;45.186;9.792;2023-04-28T13:39:53;101110.28;;;23.63;40.75
51297;BME280;37380;45.186;9.792;2023-04-28T13:42:27;101108.53;;;23.59;39.87
51297;BME280;37380;45.186;9.792;2023-04-28T13:45:21;101119.09;;;23.72;39.88
51297;BME280;37380;45.186;9.792;2023-04-28T13:47:48;101133.00;;;23.20;41.90
51297;BME280;37380;45.186;9.792;2023-04-28T13:50:23;101107.50;;;23.77;40.20
51297;BME280;37380;45.186;9.792;2023-04-28T13:53:18;101110.13;;;22.98;41.80
51297;BME280;37380;45.186;9.792;2023-04-28T13:55:45;101095.13;;;22.83;41.79
51297;BME280;37380;45.186;9.792;2023-04-28T13:58:16;101104.78;;;22.98;41.60
51297;BME280;37380;45.186;9.792;2023-04-28T14:00:49;101110.38;;;23.57;41.75
51297;BME280;37380;45.186;9.792;2023-04-28T14:03:50;101083.22;;;23.22;40.67
51297;BME280;37380;45.186;9.792;2023-04-28T14:06:25;101109.59;;;23.47;40.87
51297;BME280;37380;45.186;9.792;2023-04-28T14:08:53;101059.38;;;23.10;43.75
51297;BME280;37380;45.186;9.792;2023-04-28T14:11:27;101075.41;;;23.80;43.11